sensor_id;sensor_type;location;lat;lon;timestamp;pressure;altitude;pressure_sealevel;temperature;humidity
59367;BME280;45163;47.690;11.770;2022-10-18T00:00:19;94327.84;;;8.28;100.00
59367;BME280;45163;47.690;11.770;2022-10-18T00:02:45;94321.59;;;8.28;100.00
59367;BME280;45163;47.690;11.770;2022-10-18T00:05:11;94317.41;;;8.16;100.00
59367;BME280;45163;47.690;11.770;2022-10-18T00:07:37;94325.16;;;8.14;100.00
59367;BME280;45163;47.690;11.770;2022-10-18T00:10:03;94321.69;;;8.06;100.00
59367;BME280;45163;47.690;11.770;2022-10-18T00:12:32;94324.03;;;8.01;100.00
59367;BME280;45163;47.690;11.770;2022-10-18T00:14:58;94319.72;;;8.10;100.00
59367;BME280;45163;47.690;11.770;2022-10-18T00:17:24;94316.56;;;8.33;100.00
59367;BME280;45163;47.690;11.770;2022-10-18T00:19:50;94317.41;;;8.09;100.00
59367;BME280;45163;47.690;11.770;2022-10-18T00:22:16;94320.53;;;8.07;100.00
59367;BME280;45163;47.690;11.770;2022-10-18T00:24:42;94317.06;;;8.03;100.00
59367;BME280;45163;47.690;11.770;2022-10-18T00:27:08;94313.94;;;8.05;100.00
59367;BME280;45163;47.690;11.770;2022-10-18T00:29:34;94312.75;;;8.02;100.00
59367;BME280;45163;47.690;11.770;2022-10-18T00:32:00;94315.88;;;7.97;100.00
59367;BME280;45163;47.690;11.770;2022-10-18T00:34:26;94308.06;;;8.20;100.00
59367;BME280;45163;47.690;11.770;2022-10-18T00:36:52;94301.03;;;8.37;100.00
59367;BME280;45163;47.690;11.770;2022-10-18T00:39:20;94296.44;;;8.06;100.00
59367;BME280;45163;47.690;11.770;2022-10-18T00:41:47;94300.78;;;7.85;100.00
59367;BME280;45163;47.690;11.770;2022-10-18T00:46:44;94305.13;;;7.58;100.00
59367;BME280;45163;47.690;11.770;2022-10-18T00:49:29;94311.31;;;7.55;100.00
59367;BME280;45163;47.690;11.770;2022-10-18T00:52:00;94304.75;;;7.45;100.00
59367;BME280;45163;47.690;11.770;2022-10-18T00:54:29;94310.19;;;7.48;100.00
59367;BME280;45163;47.690;11.770;2022-10-18T00:56:56;94314.84;;;7.41;100.00
59367;BME280;45163;47.690;11.770;2022-10-18T00:59:22;94315.97;;;7.58;100.00
59367;BME280;45163;47.690;11.770;2022-10-18T01:01:48;94317.13;;;7.74;100.00
59367;BME280;45163;47.690;11.770;2022-10-18T01:04:16;94314.34;;;7.89;100.00
59367;BME280;45163;47.690;11.770;2022-10-18T01:06:58;94311.28;;;7.83;100.00
59367;BME280;45163;47.690;11.770;2022-10-18T01:32:21;94305.50;;;7.42;100.00
59367;BME280;45163;47.690;11.770;2022-10-18T01:34:51;94303.19;;;7.37;100.00
59367;BME280;45163;47.690;11.770;2022-10-18T01:37:22;94297.38;;;7.42;100.00
59367;BME280;45163;47.690;11.770;2022-10-18T01:39:52;94293.88;;;7.48;100.00
59367;BME280;45163;47.690;11.770;2022-10-18T01:42:19;94293.88;;;7.48;100.00
59367;BME280;45163;47.690;11.770;2022-10-18T01:44:47;94298.13;;;7.46;100.00
59367;BME280;45163;47.690;11.770;2022-10-18T01:47:15;94295.44;;;7.46;100.00
59367;BME280;45163;47.690;11.770;2022-10-18T01:49:42;94306.69;;;7.44;100.00
59367;BME280;45163;47.690;11.770;2022-10-18T01:52:12;94304.75;;;7.45;100.00
59367;BME280;45163;47.690;11.770;2022-10-18T01:54:41;94312.50;;;7.46;100.00
59367;BME280;45163;47.690;11.770;2022-10-18T01:57:22;94314.06;;;7.40;100.00
59367;BME280;45163;47.690;11.770;2022-10-18T02:00:09;94312.53;;;7.36;100.00
59367;BME280;45163;47.690;11.770;2022-10-18T02:05:38;94295.44;;;7.28;100.00
59367;BME280;45163;47.690;11.770;2022-10-18T02:08:58;94301.22;;;7.55;100.00
59367;BME280;45163;47.690;11.770;2022-10-18T02:11:28;94296.56;;;7.52;100.00
59367;BME280;45163;47.690;11.770;2022-10-18T02:13:59;94296.59;;;7.48;100.00
59367;BME280;45163;47.690;11.770;2022-10-18T02:16:33;94291.16;;;7.45;100.00
59367;BME280;45163;47.690;11.770;2022-10-18T02:19:05;94294.25;;;7.47;100.00
59367;BME280;45163;47.690;11.770;2022-10-18T02:21:33;94290.75;;;7.39;100.00
59367;BME280;45163;47.690;11.770;2022-10-18T02:24:01;94297.38;;;7.45;100.00
59367;BME280;45163;47.690;11.770;2022-10-18T02:26:27;94297.38;;;7.42;100.00
59367;BME280;45163;47.690;11.770;2022-10-18T02:28:54;94298.09;;;7.78;100.00
59367;BME280;45163;47.690;11.770;2022-10-18T02:31:46;94290.19;;;8.16;100.00
59367;BME280;45163;47.690;11.770;2022-10-18T02:34:22;94289.03;;;8.20;100.00
59367;BME280;45163;47.690;11.770;2022-10-18T02:36:54;94287.44;;;8.23;100.00
59367;BME280;45163;47.690;11.770;2022-10-18T02:39:43;94283.94;;;8.22;100.00
59367;BME280;45163;47.690;11.770;2022-10-18T02:42:12;94286.72;;;8.15;100.00
59367;BME280;45163;47.690;11.770;2022-10-18T02:44:38;94280.84;;;8.20;100.00
59367;BME280;45163;47.690;11.770;2022-10-18T02:47:06;94290.97;;;8.13;100.00
59367;BME280;45163;47.690;11.770;2022-10-18T02:49:33;94290.56;;;8.18;100.00
59367;BME280;45163;47.690;11.770;2022-10-18T02:51:59;94297.97;;;8.17;100.00
59367;BME280;45163;47.690;11.770;2022-10-18T02:54:25;94301.88;;;8.09;100.00
59367;BME280;45163;47.690;11.770;2022-10-18T02:56:51;94303.50;;;7.85;100.00
59367;BME280;45163;47.690;11.770;2022-10-18T02:59:17;94297.31;;;7.70;100.00
59367;BME280;45163;47.690;11.770;2022-10-18T03:01:43;94301.59;;;7.64;100.00
59367;BME280;45163;47.690;11.770;2022-10-18T03:04:09;94304.72;;;7.56;100.00
59367;BME280;45163;47.690;11.770;2022-10-18T03:06:35;94302.03;;;7.48;100.00
59367;BME280;45163;47.690;11.770;2022-10-18T03:09:03;94302.03;;;7.45;100.00
59367;BME280;45163;47.690;11.770;2022-10-18T03:11:29;94309.78;;;7.39;100.00
59367;BME280;45163;47.690;11.770;2022-10-18T03:13:55;94307.84;;;7.29;100.00
59367;BME280;45163;47.690;11.770;2022-10-18T03:16:21;94303.97;;;7.37;100.00
59367;BME280;45163;47.690;11.770;2022-10-18T03:18:47;94313.25;;;7.43;100.00
59367;BME280;45163;47.690;11.770;2022-10-18T03:21:13;94312.50;;;7.43;100.00
59367;BME280;45163;47.690;11.770;2022-10-18T03:23:39;94316.34;;;7.56;100.00
59367;BME280;45163;47.690;11.770;2022-10-18T03:26:07;94310.16;;;7.70;100.00
59367;BME280;45163;47.690;11.770;2022-10-18T03:28:33;94316.34;;;7.70;100.00
59367;BME280;45163;47.690;11.770;2022-10-18T03:31:03;94310.09;;;7.88;100.00
59367;BME280;45163;47.690;11.770;2022-10-18T03:33:30;94314.41;;;7.78;100.00
59367;BME280;45163;47.690;11.770;2022-10-18T03:35:56;94309.78;;;7.54;100.00
59367;BME280;45163;47.690;11.770;2022-10-18T03:38:23;94305.91;;;7.33;100.00
59367;BME280;45163;47.690;11.770;2022-10-18T03:40:49;94309.41;;;7.19;100.00
59367;BME280;45163;47.690;11.770;2022-10-18T03:43:14;94310.94;;;7.31;100.00
59367;BME280;45163;47.690;11.770;2022-10-18T03:45:41;94313.66;;;7.45;100.00
59367;BME280;45163;47.690;11.770;2022-10-18T03:48:07;94310.91;;;7.56;100.00
59367;BME280;45163;47.690;11.770;2022-10-18T03:50:33;94319.47;;;7.65;100.00
59367;BME280;45163;47.690;11.770;2022-10-18T03:52:59;94310.50;;;7.65;100.00
59367;BME280;45163;47.690;11.770;2022-10-18T03:55:25;94306.66;;;7.59;100.00
59367;BME280;45163;47.690;11.770;2022-10-18T03:57:51;94300.47;;;7.51;100.00
59367;BME280;45163;47.690;11.770;2022-10-18T04:00:17;94296.19;;;7.43;100.00
59367;BME280;45163;47.690;11.770;2022-10-18T04:02:43;94302.44;;;7.40;100.00
59367;BME280;45163;47.690;11.770;2022-10-18T04:05:09;94305.91;;;7.37;100.00
59367;BME280;45163;47.690;11.770;2022-10-18T04:07:35;94302.78;;;7.31;100.00
59367;BME280;45163;47.690;11.770;2022-10-18T04:10:01;94300.47;;;7.26;100.00
59367;BME280;45163;47.690;11.770;2022-10-18T04:12:26;94307.47;;;7.16;100.00
59367;BME280;45163;47.690;11.770;2022-10-18T04:14:52;94308.63;;;7.12;100.00
59367;BME280;45163;47.690;11.770;2022-10-18T04:17:18;94306.31;;;7.03;100.00
59367;BME280;45163;47.690;11.770;2022-10-18T04:19:44;94309.38;;;6.98;100.00
59367;BME280;45163;47.690;11.770;2022-10-18T04:22:10;94311.72;;;6.99;100.00
59367;BME280;45163;47.690;11.770;2022-10-18T04:24:37;94314.44;;;7.03;100.00
59367;BME280;45163;47.690;11.770;2022-10-18T04:27:04;94316.38;;;7.17;100.00
59367;BME280;45163;47.690;11.770;2022-10-18T04:29:30;94312.09;;;7.52;100.00
59367;BME280;45163;47.690;11.770;2022-10-18T04:31:56;94317.94;;;7.61;100.00
59367;BME280;45163;47.690;11.770;2022-10-18T04:34:22;94311.31;;;7.58;100.00
59367;BME280;45163;47.690;11.770;2022-10-18T04:36:48;94313.66;;;7.53;100.00
59367;BME280;45163;47.690;11.770;2022-10-18T04:39:14;94309.00;;;7.42;100.00
59367;BME280;45163;47.690;11.770;2022-10-18T04:41:40;94317.16;;;7.42;100.00
59367;BME280;45163;47.690;11.770;2022-10-18T04:44:06;94316.78;;;7.40;100.00
59367;BME280;45163;47.690;11.770;2022-10-18T04:46:32;94323.75;;;7.34;100.00
59367;BME280;45163;47.690;11.770;2022-10-18T04:48:58;94323.38;;;7.25;100.00
59367;BME280;45163;47.690;11.770;2022-10-18T04:51:27;94330.75;;;7.21;100.00
59367;BME280;45163;47.690;11.770;2022-10-18T04:53:53;94332.28;;;7.18;100.00
59367;BME280;45163;47.690;11.770;2022-10-18T04:56:19;94327.25;;;7.28;100.00
59367;BME280;45163;47.690;11.770;2022-10-18T04:58:45;94330.75;;;7.28;100.00
59367;BME280;45163;47.690;11.770;2022-10-18T05:01:11;94333.06;;;7.22;100.00
59367;BME280;45163;47.690;11.770;2022-10-18T05:03:37;94324.53;;;7.10;100.00
59367;BME280;45163;47.690;11.770;2022-10-18T05:06:03;94321.41;;;7.01;100.00
59367;BME280;45163;47.690;11.770;2022-10-18T05:08:31;94326.44;;;6.91;100.00
59367;BME280;45163;47.690;11.770;2022-10-18T05:10:58;94321.78;;;6.81;100.00
59367;BME280;45163;47.690;11.770;2022-10-18T05:13:25;94330.28;;;6.72;100.00
59367;BME280;45163;47.690;11.770;2022-10-18T05:15:51;94334.94;;;6.72;100.00
59367;BME280;45163;47.690;11.770;2022-10-18T05:18:17;94337.28;;;6.73;100.00
59367;BME280;45163;47.690;11.770;2022-10-18T05:20:43;94343.06;;;6.68;100.00
59367;BME280;45163;47.690;11.770;2022-10-18T05:23:09;94341.16;;;6.69;100.00
59367;BME280;45163;47.690;11.770;2022-10-18T05:25:39;94347.31;;;6.62;100.00
59367;BME280;45163;47.690;11.770;2022-10-18T05:28:05;94345.78;;;6.65;100.00
59367;BME280;45163;47.690;11.770;2022-10-18T05:30:31;94341.94;;;6.73;100.00
59367;BME280;45163;47.690;11.770;2022-10-18T05:32:57;94345.06;;;6.82;100.00
59367;BME280;45163;47.690;11.770;2022-10-18T05:35:23;94345.03;;;6.89;100.00
59367;BME280;45163;47.690;11.770;2022-10-18T05:37:49;94354.38;;;6.95;100.00
59367;BME280;45163;47.690;11.770;2022-10-18T05:40:15;94353.59;;;7.02;100.00
59367;BME280;45163;47.690;11.770;2022-10-18T05:42:41;94354.78;;;7.08;100.00
59367;BME280;45163;47.690;11.770;2022-10-18T05:45:07;94360.59;;;7.14;100.00
59367;BME280;45163;47.690;11.770;2022-10-18T05:47:33;94364.09;;;7.18;100.00
59367;BME280;45163;47.690;11.770;2022-10-18T05:49:59;94358.28;;;7.27;100.00
59367;BME280;45163;47.690;11.770;2022-10-18T05:52:25;94358.28;;;7.34;100.00
59367;BME280;45163;47.690;11.770;2022-10-18T05:54:51;94350.13;;;7.34;100.00
59367;BME280;45163;47.690;11.770;2022-10-18T05:57:17;94344.69;;;7.34;100.00
59367;BME280;45163;47.690;11.770;2022-10-18T05:59:44;94336.16;;;7.35;100.00
59367;BME280;45163;47.690;11.770;2022-10-18T06:02:11;94339.25;;;7.52;100.00
59367;BME280;45163;47.690;11.770;2022-10-18T06:04:37;94343.13;;;7.72;100.00
59367;BME280;45163;47.690;11.770;2022-10-18T06:07:07;94343.06;;;8.08;100.00
59367;BME280;45163;47.690;11.770;2022-10-18T06:09:34;94331.28;;;8.46;100.00
59367;BME280;45163;47.690;11.770;2022-10-18T06:11:59;94332.34;;;8.67;100.00
59367;BME280;45163;47.690;11.770;2022-10-18T06:14:25;94336.16;;;8.84;100.00
59367;BME280;45163;47.690;11.770;2022-10-18T06:16:51;94337.59;;;9.03;100.00
59367;BME280;45163;47.690;11.770;2022-10-18T06:19:17;94329.38;;;9.10;100.00
59367;BME280;45163;47.690;11.770;2022-10-18T06:21:43;94339.88;;;9.11;100.00
59367;BME280;45163;47.690;11.770;2022-10-18T06:24:09;94341.44;;;9.09;100.00
59367;BME280;45163;47.690;11.770;2022-10-18T06:26:35;94339.56;;;8.98;100.00
59367;BME280;45163;47.690;11.770;2022-10-18T06:29:01;94335.28;;;8.97;100.00
59367;BME280;45163;47.690;11.770;2022-10-18T06:31:27;94333.34;;;8.98;100.00
59367;BME280;45163;47.690;11.770;2022-10-18T06:33:55;94334.84;;;9.03;100.00
59367;BME280;45163;47.690;11.770;2022-10-18T06:36:22;94344.91;;;9.16;100.00
59367;BME280;45163;47.690;11.770;2022-10-18T06:38:48;94350.03;;;9.59;100.00
59367;BME280;45163;47.690;11.770;2022-10-18T06:41:14;94337.09;;;10.08;100.00
59367;BME280;45163;47.690;11.770;2022-10-18T06:43:41;94336.03;;;10.36;100.00
59367;BME280;45163;47.690;11.770;2022-10-18T06:46:08;94323.09;;;10.40;100.00
59367;BME280;45163;47.690;11.770;2022-10-18T06:48:35;94320.34;;;10.75;100.00
59367;BME280;45163;47.690;11.770;2022-10-18T06:51:03;94325.75;;;11.32;100.00
59367;BME280;45163;47.690;11.770;2022-10-18T06:53:32;94320.31;;;12.03;100.00
59367;BME280;45163;47.690;11.770;2022-10-18T06:55:59;94315.00;;;12.75;100.00
59367;BME280;45163;47.690;11.770;2022-10-18T06:58:27;94313.34;;;13.34;100.00
59367;BME280;45163;47.690;11.770;2022-10-18T07:00:53;94307.66;;;13.57;100.00
59367;BME280;45163;47.690;11.770;2022-10-18T07:03:19;94309.66;;;13.40;100.00
59367;BME280;45163;47.690;11.770;2022-10-18T07:05:47;94313.44;;;13.47;100.00
59367;BME280;45163;47.690;11.770;2022-10-18T07:08:14;94311.69;;;13.53;100.00
59367;BME280;45163;47.690;11.770;2022-10-18T07:10:40;94315.19;;;14.02;100.00
59367;BME280;45163;47.690;11.770;2022-10-18T07:13:06;94314.78;;;14.16;100.00
59367;BME280;45163;47.690;11.770;2022-10-18T07:15:32;94321.03;;;13.88;100.00
59367;BME280;45163;47.690;11.770;2022-10-18T07:17:58;94324.94;;;13.21;100.00
59367;BME280;45163;47.690;11.770;2022-10-18T07:20:24;94326.38;;;12.74;100.00
59367;BME280;45163;47.690;11.770;2022-10-18T07:22:54;94322.09;;;12.53;100.00
59367;BME280;45163;47.690;11.770;2022-10-18T07:25:21;94324.13;;;12.29;100.00
59367;BME280;45163;47.690;11.770;2022-10-18T07:27:47;94330.03;;;12.27;100.00
59367;BME280;45163;47.690;11.770;2022-10-18T07:30:13;94332.06;;;12.23;100.00
59367;BME280;45163;47.690;11.770;2022-10-18T07:32:39;94332.19;;;12.16;100.00
59367;BME280;45163;47.690;11.770;2022-10-18T07:35:05;94331.19;;;12.06;100.00
59367;BME280;45163;47.690;11.770;2022-10-18T07:37:31;94336.44;;;11.97;100.00
59367;BME280;45163;47.690;11.770;2022-10-18T07:39:57;94339.63;;;11.95;100.00
59367;BME280;45163;47.690;11.770;2022-10-18T07:42:23;94342.41;;;11.92;100.00
59367;BME280;45163;47.690;11.770;2022-10-18T07:44:49;94341.16;;;11.96;100.00
59367;BME280;45163;47.690;11.770;2022-10-18T07:47:30;94345.66;;;12.07;100.00
59367;BME280;45163;47.690;11.770;2022-10-18T07:49:56;94345.50;;;12.37;100.00
59367;BME280;45163;47.690;11.770;2022-10-18T07:52:22;94338.59;;;12.69;100.00
59367;BME280;45163;47.690;11.770;2022-10-18T07:54:48;94346.09;;;12.85;100.00
59367;BME280;45163;47.690;11.770;2022-10-18T07:57:14;94340.63;;;13.21;100.00
59367;BME280;45163;47.690;11.770;2022-10-18T07:59:40;94339.72;;;13.44;100.00
59367;BME280;45163;47.690;11.770;2022-10-18T08:02:09;94335.63;;;13.85;100.00
59367;BME280;45163;47.690;11.770;2022-10-18T08:04:35;94325.78;;;14.16;100.00
59367;BME280;45163;47.690;11.770;2022-10-18T08:07:01;94334.09;;;14.58;100.00
59367;BME280;45163;47.690;11.770;2022-10-18T08:09:27;94332.53;;;14.99;100.00
59367;BME280;45163;47.690;11.770;2022-10-18T08:11:53;94318.81;;;15.25;100.00
59367;BME280;45163;47.690;11.770;2022-10-18T08:14:19;94318.28;;;15.42;100.00
59367;BME280;45163;47.690;11.770;2022-10-18T08:16:45;94326.63;;;15.39;100.00
59367;BME280;45163;47.690;11.770;2022-10-18T08:19:11;94321.66;;;15.34;100.00
59367;BME280;45163;47.690;11.770;2022-10-18T08:21:37;94320.47;;;15.48;100.00
59367;BME280;45163;47.690;11.770;2022-10-18T08:24:03;94329.47;;;15.61;99.79
59367;BME280;45163;47.690;11.770;2022-10-18T08:26:29;94322.56;;;15.69;96.13
59367;BME280;45163;47.690;11.770;2022-10-18T08:28:55;94323.50;;;15.88;94.50
59367;BME280;45163;47.690;11.770;2022-10-18T08:31:21;94324.13;;;16.05;95.31
59367;BME280;45163;47.690;11.770;2022-10-18T08:33:47;94322.16;;;16.40;95.72
59367;BME280;45163;47.690;11.770;2022-10-18T08:36:14;94325.69;;;16.84;93.98
59367;BME280;45163;47.690;11.770;2022-10-18T08:38:41;94312.41;;;16.92;88.29
59367;BME280;45163;47.690;11.770;2022-10-18T08:46:27;94314.91;;;17.71;84.84
59367;BME280;45163;47.690;11.770;2022-10-18T08:48:54;94308.91;;;17.72;85.40
59367;BME280;45163;47.690;11.770;2022-10-18T08:54:35;94316.59;;;18.27;81.62
59367;BME280;45163;47.690;11.770;2022-10-18T08:57:11;94312.28;;;18.35;81.14
59367;BME280;45163;47.690;11.770;2022-10-18T08:59:39;94309.31;;;19.12;79.02
59367;BME280;45163;47.690;11.770;2022-10-18T09:07:50;94306.09;;;22.00;59.39
59367;BME280;45163;47.690;11.770;2022-10-18T09:20:50;94289.59;;;26.77;40.16
59367;BME280;45163;47.690;11.770;2022-10-18T09:23:45;94286.28;;;25.53;41.91
59367;BME280;45163;47.690;11.770;2022-10-18T09:26:20;94288.91;;;23.35;44.95
59367;BME280;45163;47.690;11.770;2022-10-18T09:34:38;94285.25;;;22.51;51.48
59367;BME280;45163;47.690;11.770;2022-10-18T09:37:17;94283.81;;;22.15;53.56
59367;BME280;45163;47.690;11.770;2022-10-18T09:39:45;94287.78;;;22.28;59.33
59367;BME280;45163;47.690;11.770;2022-10-18T09:42:22;94289.44;;;23.39;52.78
59367;BME280;45163;47.690;11.770;2022-10-18T09:44:57;94295.81;;;24.68;44.73
59367;BME280;45163;47.690;11.770;2022-10-18T09:47:41;94282.75;;;25.25;42.02
59367;BME280;45163;47.690;11.770;2022-10-18T09:50:31;94287.22;;;26.23;46.49
59367;BME280;45163;47.690;11.770;2022-10-18T09:53:05;94279.06;;;26.31;42.23
59367;BME280;45163;47.690;11.770;2022-10-18T09:58:25;94284.41;;;27.70;40.78
59367;BME280;45163;47.690;11.770;2022-10-18T10:00:54;94282.78;;;28.97;37.19
59367;BME280;45163;47.690;11.770;2022-10-18T10:03:20;94287.59;;;29.02;36.76
59367;BME280;45163;47.690;11.770;2022-10-18T10:05:46;94281.78;;;28.32;35.96
59367;BME280;45163;47.690;11.770;2022-10-18T10:08:32;94287.09;;;27.15;36.49
59367;BME280;45163;47.690;11.770;2022-10-18T10:10:59;94278.19;;;26.64;38.85
59367;BME280;45163;47.690;11.770;2022-10-18T10:13:25;94291.38;;;25.44;39.52
59367;BME280;45163;47.690;11.770;2022-10-18T10:15:59;94289.75;;;24.81;42.22
59367;BME280;45163;47.690;11.770;2022-10-18T10:18:29;94283.00;;;25.83;46.18
59367;BME280;45163;47.690;11.770;2022-10-18T10:21:02;94285.47;;;27.97;44.28
59367;BME280;45163;47.690;11.770;2022-10-18T10:23:36;94278.50;;;28.71;33.41
59367;BME280;45163;47.690;11.770;2022-10-18T10:26:19;94270.38;;;29.89;32.34
59367;BME280;45163;47.690;11.770;2022-10-18T10:28:46;94269.59;;;29.62;29.68
59367;BME280;45163;47.690;11.770;2022-10-18T10:36:49;94262.66;;;31.77;27.71
59367;BME280;45163;47.690;11.770;2022-10-18T10:39:17;94268.59;;;32.65;25.40
59367;BME280;45163;47.690;11.770;2022-10-18T10:41:47;94254.06;;;34.02;26.37
59367;BME280;45163;47.690;11.770;2022-10-18T10:44:22;94258.56;;;32.64;24.37
59367;BME280;45163;47.690;11.770;2022-10-18T10:46:50;94253.00;;;30.83;26.13
59367;BME280;45163;47.690;11.770;2022-10-18T10:49:26;94253.53;;;28.87;28.83
59367;BME280;45163;47.690;11.770;2022-10-18T10:51:57;94248.66;;;28.49;29.68
59367;BME280;45163;47.690;11.770;2022-10-18T10:54:26;94248.81;;;28.33;30.01
59367;BME280;45163;47.690;11.770;2022-10-18T10:57:04;94248.72;;;28.19;30.57
59367;BME280;45163;47.690;11.770;2022-10-18T10:59:46;94249.66;;;28.52;30.54
59367;BME280;45163;47.690;11.770;2022-10-18T11:04:40;94242.00;;;29.41;29.58
59367;BME280;45163;47.690;11.770;2022-10-18T11:09:58;94235.22;;;29.82;27.32
59367;BME280;45163;47.690;11.770;2022-10-18T11:12:33;94232.53;;;30.03;27.90
59367;BME280;45163;47.690;11.770;2022-10-18T11:15:12;94227.78;;;30.24;27.75
59367;BME280;45163;47.690;11.770;2022-10-18T11:18:09;94230.28;;;31.36;26.75
59367;BME280;45163;47.690;11.770;2022-10-18T11:20:36;94218.25;;;31.78;26.15
59367;BME280;45163;47.690;11.770;2022-10-18T11:23:18;94218.47;;;32.73;24.46
59367;BME280;45163;47.690;11.770;2022-10-18T11:28:25;94212.94;;;32.96;23.73
59367;BME280;45163;47.690;11.770;2022-10-18T11:36:28;94194.25;;;32.20;23.80
59367;BME280;45163;47.690;11.770;2022-10-18T11:39:31;94190.75;;;34.15;22.29
59367;BME280;45163;47.690;11.770;2022-10-18T11:42:18;94189.25;;;34.29;22.24
59367;BME280;45163;47.690;11.770;2022-10-18T11:48:02;94185.44;;;33.27;22.59
59367;BME280;45163;47.690;11.770;2022-10-18T11:53:31;94178.00;;;32.86;23.37
59367;BME280;45163;47.690;11.770;2022-10-18T11:56:24;94170.69;;;33.06;23.33
59367;BME280;45163;47.690;11.770;2022-10-18T12:01:38;94165.25;;;29.14;28.84
59367;BME280;45163;47.690;11.770;2022-10-18T12:04:21;94165.84;;;27.94;30.69
59367;BME280;45163;47.690;11.770;2022-10-18T12:06:50;94168.47;;;27.31;32.47
59367;BME280;45163;47.690;11.770;2022-10-18T12:12:18;94165.91;;;26.68;33.95
59367;BME280;45163;47.690;11.770;2022-10-18T12:14:52;94159.78;;;26.17;34.55
59367;BME280;45163;47.690;11.770;2022-10-18T12:17:27;94161.19;;;25.88;35.73
59367;BME280;45163;47.690;11.770;2022-10-18T12:20:04;94168.91;;;26.75;35.37
59367;BME280;45163;47.690;11.770;2022-10-18T12:22:38;94161.13;;;28.64;31.89
59367;BME280;45163;47.690;11.770;2022-10-18T12:25:11;94159.81;;;28.46;31.65
59367;BME280;45163;47.690;11.770;2022-10-18T12:27:43;94155.44;;;27.64;32.81
59367;BME280;45163;47.690;11.770;2022-10-18T12:30:22;94159.69;;;27.95;33.11
59367;BME280;45163;47.690;11.770;2022-10-18T12:32:57;94156.69;;;28.12;31.64
59367;BME280;45163;47.690;11.770;2022-10-18T12:35:30;94153.16;;;28.68;30.69
59367;BME280;45163;47.690;11.770;2022-10-18T12:41:05;94155.75;;;27.30;33.51
59367;BME280;45163;47.690;11.770;2022-10-18T12:43:33;94147.47;;;26.42;34.30
59367;BME280;45163;47.690;11.770;2022-10-18T12:46:05;94153.13;;;25.45;36.83
59367;BME280;45163;47.690;11.770;2022-10-18T12:48:35;94146.28;;;24.56;38.45
59367;BME280;45163;47.690;11.770;2022-10-18T12:51:22;94149.75;;;24.28;40.15
59367;BME280;45163;47.690;11.770;2022-10-18T12:54:07;94151.97;;;23.96;42.02
59367;BME280;45163;47.690;11.770;2022-10-18T12:56:37;94157.19;;;23.77;42.61
59367;BME280;45163;47.690;11.770;2022-10-18T13:09:26;94146.13;;;23.08;46.20
59367;BME280;45163;47.690;11.770;2022-10-18T13:11:58;94138.59;;;24.17;44.73
59367;BME280;45163;47.690;11.770;2022-10-18T13:25:34;94146.53;;;28.66;35.53
59367;BME280;45163;47.690;11.770;2022-10-18T13:28:24;94141.25;;;28.94;34.58
59367;BME280;45163;47.690;11.770;2022-10-18T13:33:38;94150.75;;;28.16;36.14
59367;BME280;45163;47.690;11.770;2022-10-18T13:41:15;94141.13;;;29.06;34.84
59367;BME280;45163;47.690;11.770;2022-10-18T14:05:48;94152.09;;;26.75;39.05
59367;BME280;45163;47.690;11.770;2022-10-18T14:16:43;94154.63;;;25.79;42.03
59367;BME280;45163;47.690;11.770;2022-10-18T14:21:57;94151.13;;;25.06;43.99
59367;BME280;45163;47.690;11.770;2022-10-18T14:24:25;94144.25;;;24.51;45.82
59367;BME280;45163;47.690;11.770;2022-10-18T14:29:48;94141.94;;;23.67;49.21
59367;BME280;45163;47.690;11.770;2022-10-18T14:32:26;94148.13;;;23.88;49.29
59367;BME280;45163;47.690;11.770;2022-10-18T14:34:53;94140.59;;;23.57;50.15
59367;BME280;45163;47.690;11.770;2022-10-18T14:37:33;94141.41;;;23.20;52.51
59367;BME280;45163;47.690;11.770;2022-10-18T14:40:01;94147.13;;;23.05;53.33
59367;BME280;45163;47.690;11.770;2022-10-18T14:42:28;94152.69;;;22.48;56.72
59367;BME280;45163;47.690;11.770;2022-10-18T14:44:54;94149.84;;;22.16;60.21
59367;BME280;45163;47.690;11.770;2022-10-18T14:47:21;94149.56;;;21.73;63.72
59367;BME280;45163;47.690;11.770;2022-10-18T14:49:49;94143.25;;;21.52;66.61
59367;BME280;45163;47.690;11.770;2022-10-18T14:52:17;94141.09;;;21.42;69.57
59367;BME280;45163;47.690;11.770;2022-10-18T14:54:44;94148.50;;;21.15;71.82
59367;BME280;45163;47.690;11.770;2022-10-18T14:57:18;94142.25;;;21.00;74.43
59367;BME280;45163;47.690;11.770;2022-10-18T14:59:49;94137.16;;;20.98;76.88
59367;BME280;45163;47.690;11.770;2022-10-18T15:02:22;94139.88;;;20.93;76.43
59367;BME280;45163;47.690;11.770;2022-10-18T15:05:05;94139.22;;;20.83;77.62
59367;BME280;45163;47.690;11.770;2022-10-18T15:07:32;94134.13;;;20.81;79.08
59367;BME280;45163;47.690;11.770;2022-10-18T15:10:00;94138.94;;;20.81;80.11
59367;BME280;45163;47.690;11.770;2022-10-18T15:12:28;94136.56;;;20.59;83.20
59367;BME280;45163;47.690;11.770;2022-10-18T15:14:55;94146.22;;;20.63;86.18
59367;BME280;45163;47.690;11.770;2022-10-18T15:17:27;94150.34;;;20.53;87.06
59367;BME280;45163;47.690;11.770;2022-10-18T15:20:00;94147.97;;;20.61;87.04
59367;BME280;45163;47.690;11.770;2022-10-18T15:22:29;94144.03;;;20.53;87.90
59367;BME280;45163;47.690;11.770;2022-10-18T15:27:31;94140.25;;;20.26;90.29
59367;BME280;45163;47.690;11.770;2022-10-18T15:30:07;94152.09;;;20.12;92.06
59367;BME280;45163;47.690;11.770;2022-10-18T15:32:35;94151.53;;;20.08;94.08
59367;BME280;45163;47.690;11.770;2022-10-18T15:35:15;94154.75;;;19.92;95.82
59367;BME280;45163;47.690;11.770;2022-10-18T15:37:44;94151.13;;;19.61;97.20
59367;BME280;45163;47.690;11.770;2022-10-18T15:42:54;94153.25;;;19.67;98.94
59367;BME280;45163;47.690;11.770;2022-10-18T15:45:34;94158.81;;;19.57;98.40